This is the latest recevied weather packets stored in our database for station/object DM4XI-13. If no packets are shown the sender has not sent any weather packets the latest 10 day(s).
| Time | Temp. | Humidity | Pressure | Rain* | Wind** | Luminosity | Snow |
|---|---|---|---|---|---|---|---|
| 1777479853 | 15.56° C | 29% | 1021 hPa | 0 mm | 0.89 m/s, 160° | 96 W/m² | - |
| 1777479792 | 15.56° C | 28% | 1021.1 hPa | 0 mm | 1.79 m/s, 311° | 117 W/m² | - |
| 1777479731 | 15.56° C | 28% | 1021 hPa | 0 mm | 1.79 m/s, 148° | 103 W/m² | - |
| 1777479670 | 15.56° C | 29% | 1021 hPa | 0 mm | 0.89 m/s, 259° | 119 W/m² | - |
| 1777479609 | 15.56° C | 29% | 1021 hPa | 0 mm | 1.34 m/s, 316° | 120 W/m² | - |
| 1777479548 | 15.56° C | 29% | 1020.9 hPa | 0 mm | 0.89 m/s, 223° | 113 W/m² | - |
| 1777479487 | 15.56° C | 29% | 1021.1 hPa | 0 mm | 1.79 m/s, 158° | 116 W/m² | - |
| 1777479423 | 15.56° C | 28% | 1021 hPa | 0 mm | 2.24 m/s, 185° | 123 W/m² | - |
| 1777479362 | 15.56° C | 29% | 1020.9 hPa | 0 mm | 0.89 m/s, 188° | 130 W/m² | - |
| 1777479301 | 16.11° C | 29% | 1020.8 hPa | 0 mm | 0.89 m/s, 153° | 130 W/m² | - |
| 1777479240 | 16.11° C | 28% | 1020.8 hPa | 0 mm | 1.79 m/s, 36° | 132 W/m² | - |
| 1777479179 | 16.11° C | 28% | 1021 hPa | 0 mm | 2.24 m/s, 32° | 129 W/m² | - |
| 1777479118 | 15.56° C | 29% | 1020.9 hPa | 0 mm | 0.45 m/s, 166° | 160 W/m² | - |
| 1777479057 | 15.56° C | 28% | 1021 hPa | 0 mm | 1.34 m/s, 196° | 147 W/m² | - |
| 1777478996 | 15.56° C | 28% | 1020.8 hPa | 0 mm | 1.79 m/s, 297° | 142 W/m² | - |
| 1777478935 | 15.56° C | 28% | 1020.9 hPa | 0 mm | 0.45 m/s, 210° | 138 W/m² | - |
| 1777478874 | 16.11° C | 28% | 1021 hPa | 0 mm | 2.24 m/s, 0° | 145 W/m² | - |
| 1777478813 | 16.11° C | 27% | 1020.8 hPa | 0 mm | 0.89 m/s, 94° | 158 W/m² | - |
| 1777478752 | 16.11° C | 28% | 1020.9 hPa | 0 mm | 1.34 m/s, 100° | 152 W/m² | - |
| 1777478691 | 15.56° C | 28% | 1020.7 hPa | 0 mm | 0.45 m/s, 159° | 151 W/m² | - |
| 1777478631 | 15.56° C | 27% | 1020.8 hPa | 0 mm | 0.89 m/s, 356° | 161 W/m² | - |
| 1777478570 | 15.56° C | 27% | 1020.8 hPa | 0 mm | 0.89 m/s, 310° | 165 W/m² | - |
| 1777478508 | 15.56° C | 27% | 1021 hPa | 0 mm | 0 m/s | 168 W/m² | - |
| 1777478447 | 16.11° C | 26% | 1020.9 hPa | 0 mm | 2.24 m/s, 99° | 164 W/m² | - |
| 1777478387 | 16.11° C | 27% | 1020.9 hPa | 0 mm | 0.89 m/s, 169° | 172 W/m² | - |
* Rain latest hour (hover to see other rain measurements)
** Current wind speed in m/s (hover to see current wind gust speed)